Time;durP1;ratioP1;P1;durP2;ratioP2;P2;SDS_P1;SDS_P2;PMS_P1;PMS_P2;Temp;Humidity;BMP_temperature;BMP_pressure;BME280_temperature;BME280_humidity;BME280_pressure;Samples;Min_cycle;Max_cycle;Signal;HPM_P1;HPM_P2
2023/10/31 00:00:11;;;;;;;1.13;0.37;;;;;;;;;;5062599;28;20205;-32
2023/10/31 00:02:40;;;;;;;0.43;0.43;;;;;;;;;;5061410;28;20241;-32
2023/10/31 00:05:08;;;;;;;0.50;0.50;;;;;;;;;;5051535;28;20229;-32
2023/10/31 00:07:35;;;;;;;0.50;0.50;;;;;;;;;;5065718;28;20205;-32
2023/10/31 00:10:02;;;;;;;1.07;0.83;;;;;;;;;;5057019;28;20296;-32
2023/10/31 00:12:30;;;;;;;0.50;0.50;;;;;;;;;;5056343;28;20206;-32
2023/10/31 00:14:57;;;;;;;0.60;0.60;;;;;;;;;;5052037;28;20241;-31
2023/10/31 00:17:24;;;;;;;0.50;0.50;;;;;;;;;;5063666;28;20584;-31
2023/10/31 00:19:53;;;;;;;0.57;0.57;;;;;;;;;;5051765;28;20618;-31
2023/10/31 00:22:20;;;;;;;1.50;0.80;;;;;;;;;;5057160;28;20199;-30
2023/10/31 00:24:47;;;;;;;0.40;0.40;;;;;;;;;;5061026;28;20233;-31
2023/10/31 00:27:15;;;;;;;0.60;0.60;;;;;;;;;;5053601;28;20209;-31
2023/10/31 00:29:42;;;;;;;0.67;0.67;;;;;;;;;;5062267;28;20207;-29
2023/10/31 00:32:09;;;;;;;0.50;0.50;;;;;;;;;;5057911;28;20214;-35
2023/10/31 00:34:36;;;;;;;1.80;0.70;;;;;;;;;;5051045;28;20233;-31
2023/10/31 00:37:05;;;;;;;1.20;0.60;;;;;;;;;;5057857;28;20203;-30
2023/10/31 00:39:33;;;;;;;0.50;0.50;;;;;;;;;;5050854;28;20199;-31
2023/10/31 00:42:01;;;;;;;0.43;0.43;;;;;;;;;;5052402;28;20229;-30
2023/10/31 00:44:28;;;;;;;0.83;0.57;;;;;;;;;;5054529;28;20236;-31
2023/10/31 00:46:55;;;;;;;0.47;0.47;;;;;;;;;;5058358;28;20207;-31
2023/10/31 00:49:22;;;;;;;0.40;0.40;;;;;;;;;;5054499;28;20632;-31
2023/10/31 00:51:49;;;;;;;0.73;0.57;;;;;;;;;;5052035;28;20212;-31
2023/10/31 00:54:18;;;;;;;0.47;0.37;;;;;;;;;;5046026;28;20247;-33
2023/10/31 00:56:45;;;;;;;0.23;0.23;;;;;;;;;;5060234;28;20208;-31
2023/10/31 00:59:12;;;;;;;1.07;0.30;;;;;;;;;;5052125;28;20201;-32
2023/10/31 01:01:39;;;;;;;1.80;0.57;;;;;;;;;;5062769;28;20224;-32
2023/10/31 01:04:07;;;;;;;0.37;0.37;;;;;;;;;;5059040;28;20244;-30
2023/10/31 01:06:34;;;;;;;0.40;0.40;;;;;;;;;;5059861;28;20205;-30
2023/10/31 01:09:01;;;;;;;0.60;0.53;;;;;;;;;;5055736;28;20210;-32
2023/10/31 01:11:30;;;;;;;1.03;0.60;;;;;;;;;;5057443;28;20714;-30
2023/10/31 01:13:57;;;;;;;0.40;0.40;;;;;;;;;;5049469;28;20225;-31
2023/10/31 01:16:24;;;;;;;0.63;0.43;;;;;;;;;;5050153;28;20200;-29
2023/10/31 01:18:51;;;;;;;2.57;0.40;;;;;;;;;;5057490;28;20654;-34
2023/10/31 01:21:18;;;;;;;0.40;0.40;;;;;;;;;;5053181;28;20225;-31
2023/10/31 01:23:45;;;;;;;1.43;0.50;;;;;;;;;;5056141;28;20228;-30
2023/10/31 01:26:12;;;;;;;0.50;0.50;;;;;;;;;;5054327;28;20210;-30
2023/10/31 01:28:41;;;;;;;0.30;0.30;;;;;;;;;;5056873;28;20203;-30
2023/10/31 01:31:08;;;;;;;0.37;0.37;;;;;;;;;;5055088;28;20208;-29
2023/10/31 01:33:36;;;;;;;0.43;0.43;;;;;;;;;;5057976;28;20254;-30
2023/10/31 01:36:03;;;;;;;0.20;0.20;;;;;;;;;;5064867;28;20197;-31
2023/10/31 01:38:30;;;;;;;0.50;0.50;;;;;;;;;;5057615;28;20204;-30
2023/10/31 01:40:57;;;;;;;0.50;0.40;;;;;;;;;;5049028;28;20719;-34
2023/10/31 01:43:31;;;;;;;0.20;0.20;;;;;;;;;;5053786;28;20235;-31
2023/10/31 01:45:59;;;;;;;0.33;0.30;;;;;;;;;;5060586;28;20205;-30
2023/10/31 01:48:31;;;;;;;0.67;0.20;;;;;;;;;;5049490;28;20206;-32
2023/10/31 01:50:58;;;;;;;2.13;0.33;;;;;;;;;;5052154;28;20207;-32
2023/10/31 01:53:26;;;;;;;0.40;0.40;;;;;;;;;;5049484;28;20238;-31
2023/10/31 01:55:55;;;;;;;0.67;0.40;;;;;;;;;;5057705;28;20300;-30
2023/10/31 01:58:25;;;;;;;0.30;0.30;;;;;;;;;;5053494;28;20247;-31
2023/10/31 02:00:52;;;;;;;0.30;0.30;;;;;;;;;;5052710;28;20233;-31
2023/10/31 02:03:21;;;;;;;0.20;0.20;;;;;;;;;;5064799;28;20225;-30
2023/10/31 02:05:48;;;;;;;1.97;0.33;;;;;;;;;;5060316;28;20201;-30
2023/10/31 02:08:15;;;;;;;0.23;0.23;;;;;;;;;;5067440;28;20210;-33
2023/10/31 02:10:42;;;;;;;0.27;0.27;;;;;;;;;;5057108;28;20201;-32
2023/10/31 02:13:13;;;;;;;1.07;0.20;;;;;;;;;;5053818;28;20291;-31
2023/10/31 02:15:40;;;;;;;1.33;0.33;;;;;;;;;;5054605;28;20214;-32
2023/10/31 02:18:08;;;;;;;0.40;0.20;;;;;;;;;;5054505;28;20222;-31
2023/10/31 02:20:37;;;;;;;0.40;0.40;;;;;;;;;;5048826;28;20206;-33
2023/10/31 02:23:06;;;;;;;0.33;0.33;;;;;;;;;;5057057;28;20766;-31
2023/10/31 02:25:34;;;;;;;2.53;0.30;;;;;;;;;;5051546;28;20268;-31
2023/10/31 02:28:04;;;;;;;0.23;0.23;;;;;;;;;;5065404;28;20233;-32
2023/10/31 02:30:34;;;;;;;0.23;0.20;;;;;;;;;;5056964;28;20212;-30
2023/10/31 02:33:02;;;;;;;0.30;0.30;;;;;;;;;;5057517;28;20225;-31
2023/10/31 02:35:30;;;;;;;0.20;0.20;;;;;;;;;;5054130;28;20205;-31
2023/10/31 02:38:00;;;;;;;0.57;0.30;;;;;;;;;;5054273;28;20270;-30
2023/10/31 02:40:32;;;;;;;0.20;0.20;;;;;;;;;;5048556;28;20237;-32
2023/10/31 02:43:02;;;;;;;0.30;0.30;;;;;;;;;;5058882;28;20229;-34
2023/10/31 02:45:30;;;;;;;0.77;0.23;;;;;;;;;;5067171;28;20592;-30
2023/10/31 02:47:59;;;;;;;0.33;0.30;;;;;;;;;;5063628;28;20201;-31
2023/10/31 02:50:26;;;;;;;0.27;0.27;;;;;;;;;;5052339;28;20202;-33
2023/10/31 02:52:56;;;;;;;0.23;0.20;;;;;;;;;;5059378;28;20198;-32
2023/10/31 02:55:29;;;;;;;0.10;0.10;;;;;;;;;;5063375;28;20217;-31
2023/10/31 02:57:57;;;;;;;0.30;0.30;;;;;;;;;;5072128;28;20209;-30
2023/10/31 03:00:26;;;;;;;0.20;0.20;;;;;;;;;;5071842;28;20205;-31
2023/10/31 03:02:54;;;;;;;0.83;0.33;;;;;;;;;;5063934;28;20237;-33
2023/10/31 03:05:25;;;;;;;0.20;0.20;;;;;;;;;;5062961;28;20232;-36
2023/10/31 03:08:00;;;;;;;0.20;0.20;;;;;;;;;;5064669;28;20205;-35
2023/10/31 03:10:32;;;;;;;0.30;0.30;;;;;;;;;;5051576;28;20204;-31
2023/10/31 03:13:02;;;;;;;0.20;0.20;;;;;;;;;;5051957;28;20207;-31
2023/10/31 03:15:29;;;;;;;0.30;0.30;;;;;;;;;;5052195;28;20293;-32
2023/10/31 03:18:00;;;;;;;0.23;0.23;;;;;;;;;;5056602;28;20215;-29
2023/10/31 03:20:27;;;;;;;0.20;0.20;;;;;;;;;;5054936;28;20260;-31
2023/10/31 03:22:55;;;;;;;0.20;0.20;;;;;;;;;;5055772;28;20222;-30
2023/10/31 03:25:25;;;;;;;0.63;0.50;;;;;;;;;;5053245;28;20209;-30
2023/10/31 03:27:59;;;;;;;0.37;0.37;;;;;;;;;;5053508;28;20233;-31
2023/10/31 03:30:40;;;;;;;0.20;0.20;;;;;;;;;;5070494;28;20202;-31
2023/10/31 03:33:07;;;;;;;0.90;0.30;;;;;;;;;;5063569;28;20259;-31
2023/10/31 03:35:35;;;;;;;0.40;0.40;;;;;;;;;;5055898;28;20202;-31
2023/10/31 03:38:05;;;;;;;1.00;1.00;;;;;;;;;;5053922;28;20245;-30
2023/10/31 03:40:37;;;;;;;2.17;0.40;;;;;;;;;;5061621;28;20201;-30
2023/10/31 03:43:07;;;;;;;0.30;0.30;;;;;;;;;;5060561;28;20221;-29
2023/10/31 03:45:36;;;;;;;0.37;0.37;;;;;;;;;;5058714;28;20218;-31
2023/10/31 03:48:07;;;;;;;0.30;0.30;;;;;;;;;;5059144;28;20209;-31
2023/10/31 03:50:35;;;;;;;0.30;0.30;;;;;;;;;;5056101;28;20213;-30
2023/10/31 03:53:02;;;;;;;0.53;0.43;;;;;;;;;;5069377;28;20198;-30
2023/10/31 03:55:30;;;;;;;0.30;0.30;;;;;;;;;;5057933;28;20205;-35
2023/10/31 03:58:09;;;;;;;0.40;0.33;;;;;;;;;;5061332;28;20206;-31
2023/10/31 04:00:38;;;;;;;0.20;0.20;;;;;;;;;;5059238;28;20210;-31
2023/10/31 04:03:06;;;;;;;3.03;0.50;;;;;;;;;;5040177;28;20218;-30
2023/10/31 04:05:37;;;;;;;2.00;0.30;;;;;;;;;;5041132;28;20213;-32
2023/10/31 04:08:07;;;;;;;0.27;0.27;;;;;;;;;;5038305;28;20214;-34
2023/10/31 04:10:36;;;;;;;0.30;0.30;;;;;;;;;;5028173;28;20210;-29
2023/10/31 04:13:10;;;;;;;0.63;0.40;;;;;;;;;;5040059;28;20205;-33
2023/10/31 04:15:39;;;;;;;1.23;0.40;;;;;;;;;;5037026;28;20206;-30
2023/10/31 04:18:09;;;;;;;0.77;0.53;;;;;;;;;;5034927;28;20233;-32
2023/10/31 04:20:41;;;;;;;0.50;0.50;;;;;;;;;;5037728;28;20234;-30
2023/10/31 04:23:11;;;;;;;3.60;0.50;;;;;;;;;;5038628;28;20214;-30
2023/10/31 04:25:39;;;;;;;0.20;0.20;;;;;;;;;;5034345;28;20302;-31
2023/10/31 04:28:15;;;;;;;0.40;0.40;;;;;;;;;;5033166;28;20214;-30
2023/10/31 04:30:46;;;;;;;0.40;0.40;;;;;;;;;;5033630;28;20201;-34
2023/10/31 04:33:18;;;;;;;0.43;0.40;;;;;;;;;;5037987;28;20202;-32
2023/10/31 04:35:46;;;;;;;0.50;0.47;;;;;;;;;;5046201;28;20210;-31
2023/10/31 04:38:16;;;;;;;1.70;0.50;;;;;;;;;;5040591;28;20202;-33
2023/10/31 04:40:49;;;;;;;3.10;0.40;;;;;;;;;;5041374;28;20203;-31
2023/10/31 04:43:20;;;;;;;1.33;0.50;;;;;;;;;;5032374;28;20236;-31
2023/10/31 04:45:53;;;;;;;0.47;0.47;;;;;;;;;;5050535;28;20216;-31
2023/10/31 04:48:23;;;;;;;1.00;0.50;;;;;;;;;;5036432;28;20750;-30
2023/10/31 04:50:54;;;;;;;1.90;0.80;;;;;;;;;;5039251;28;20210;-31
2023/10/31 04:53:29;;;;;;;1.43;0.70;;;;;;;;;;5041004;28;20314;-30
2023/10/31 04:55:57;;;;;;;0.50;0.50;;;;;;;;;;5041604;28;20212;-32
2023/10/31 04:58:26;;;;;;;0.83;0.60;;;;;;;;;;5040875;28;20253;-30
2023/10/31 05:00:57;;;;;;;0.73;0.60;;;;;;;;;;5035773;28;20215;-31
2023/10/31 05:03:28;;;;;;;0.47;0.47;;;;;;;;;;5052473;28;20317;-31
2023/10/31 05:05:59;;;;;;;0.50;0.50;;;;;;;;;;5054810;28;20210;-31
2023/10/31 05:08:27;;;;;;;0.83;0.43;;;;;;;;;;5057399;28;20614;-32
2023/10/31 05:10:58;;;;;;;0.60;0.60;;;;;;;;;;5053133;28;20209;-33
2023/10/31 05:13:26;;;;;;;0.20;0.20;;;;;;;;;;5067216;28;20233;-31
2023/10/31 05:15:58;;;;;;;2.33;0.37;;;;;;;;;;5055285;28;20210;-31
2023/10/31 05:18:33;;;;;;;1.80;0.40;;;;;;;;;;5063911;28;20623;-31
2023/10/31 05:21:01;;;;;;;0.83;0.60;;;;;;;;;;5054899;28;20205;-33
2023/10/31 05:23:42;;;;;;;0.40;0.33;;;;;;;;;;5058253;28;20233;-31
2023/10/31 05:26:17;;;;;;;0.97;0.50;;;;;;;;;;5059068;28;20280;-33
2023/10/31 05:28:47;;;;;;;0.40;0.40;;;;;;;;;;5060859;28;20197;-32
2023/10/31 05:31:19;;;;;;;1.30;0.50;;;;;;;;;;5050265;28;20206;-29
2023/10/31 05:33:53;;;;;;;1.80;0.50;;;;;;;;;;5053803;28;20220;-29
2023/10/31 05:36:24;;;;;;;0.33;0.33;;;;;;;;;;5058100;28;20210;-30
2023/10/31 05:38:51;;;;;;;0.40;0.40;;;;;;;;;;5046993;28;20202;-32
2023/10/31 05:41:23;;;;;;;0.50;0.50;;;;;;;;;;5061165;28;20304;-30
2023/10/31 05:44:04;;;;;;;0.63;0.40;;;;;;;;;;5054825;28;20237;-29
2023/10/31 05:46:47;;;;;;;0.60;0.60;;;;;;;;;;5055232;28;20663;-31
2023/10/31 05:49:14;;;;;;;0.30;0.30;;;;;;;;;;5054204;28;20415;-31
2023/10/31 05:51:43;;;;;;;2.20;0.50;;;;;;;;;;5056804;28;20213;-35
2023/10/31 05:54:12;;;;;;;0.20;0.20;;;;;;;;;;5051503;28;20233;-30
2023/10/31 05:56:40;;;;;;;1.77;0.40;;;;;;;;;;5053948;28;20205;-31
2023/10/31 05:59:09;;;;;;;0.30;0.30;;;;;;;;;;5070897;28;20205;-31
2023/10/31 06:01:37;;;;;;;0.30;0.30;;;;;;;;;;5050757;28;20305;-33
2023/10/31 06:04:06;;;;;;;0.47;0.47;;;;;;;;;;5061574;28;20229;-31
2023/10/31 06:06:39;;;;;;;0.50;0.50;;;;;;;;;;5072126;28;20205;-30
2023/10/31 06:09:10;;;;;;;1.47;0.50;;;;;;;;;;5073740;28;20213;-31
2023/10/31 06:11:37;;;;;;;0.30;0.30;;;;;;;;;;5068124;28;20289;-31
2023/10/31 06:14:07;;;;;;;0.40;0.40;;;;;;;;;;5076330;28;20212;-31
2023/10/31 06:16:36;;;;;;;0.30;0.30;;;;;;;;;;5073033;28;20217;-29
2023/10/31 06:19:15;;;;;;;0.63;0.50;;;;;;;;;;5064481;28;20238;-31
2023/10/31 06:21:44;;;;;;;0.50;0.50;;;;;;;;;;5080694;28;20208;-33
2023/10/31 06:24:12;;;;;;;0.70;0.50;;;;;;;;;;5073476;28;20827;-32
2023/10/31 06:26:43;;;;;;;0.40;0.40;;;;;;;;;;5073664;28;20235;-32
2023/10/31 06:29:14;;;;;;;0.77;0.60;;;;;;;;;;5085518;28;20201;-31
2023/10/31 06:31:48;;;;;;;0.80;0.53;;;;;;;;;;5074820;28;20227;-30
2023/10/31 06:34:19;;;;;;;0.50;0.50;;;;;;;;;;5057203;28;20231;-31
2023/10/31 06:36:48;;;;;;;0.47;0.47;;;;;;;;;;5054309;28;20289;-29
2023/10/31 06:39:19;;;;;;;0.50;0.50;;;;;;;;;;5058489;28;20206;-33
2023/10/31 06:41:46;;;;;;;0.47;0.40;;;;;;;;;;5061326;28;20206;-30
2023/10/31 06:44:14;;;;;;;0.40;0.40;;;;;;;;;;5052671;28;20236;-31
2023/10/31 06:46:45;;;;;;;0.77;0.50;;;;;;;;;;5072773;28;20574;-30
2023/10/31 06:49:12;;;;;;;0.40;0.40;;;;;;;;;;5064527;28;20849;-31
2023/10/31 06:51:40;;;;;;;0.37;0.37;;;;;;;;;;5071085;28;20667;-29
2023/10/31 06:54:11;;;;;;;1.20;0.50;;;;;;;;;;5066959;28;20237;-30
2023/10/31 06:56:38;;;;;;;0.53;0.47;;;;;;;;;;5056290;28;20197;-32
2023/10/31 06:59:08;;;;;;;2.03;0.53;;;;;;;;;;5055832;28;20557;-29
2023/10/31 07:01:35;;;;;;;0.50;0.50;;;;;;;;;;5054194;28;20213;-33
2023/10/31 07:04:13;;;;;;;1.13;0.40;;;;;;;;;;5057609;28;20229;-31
2023/10/31 07:06:57;;;;;;;1.10;0.57;;;;;;;;;;5063546;28;20564;-31
2023/10/31 07:09:27;;;;;;;0.50;0.50;;;;;;;;;;5068590;28;20421;-30
2023/10/31 07:11:58;;;;;;;1.10;0.73;;;;;;;;;;5059277;28;20525;-32
2023/10/31 07:14:27;;;;;;;2.10;0.97;;;;;;;;;;5055236;28;20261;-30
2023/10/31 07:16:55;;;;;;;2.00;0.63;;;;;;;;;;5061011;28;20201;-30
2023/10/31 07:19:25;;;;;;;1.20;0.70;;;;;;;;;;5064879;28;20648;-29
2023/10/31 07:21:58;;;;;;;1.67;0.70;;;;;;;;;;5065159;28;20586;-31
2023/10/31 07:24:28;;;;;;;1.53;0.40;;;;;;;;;;5070478;28;20230;-31
2023/10/31 07:26:57;;;;;;;1.83;0.50;;;;;;;;;;5066603;28;20208;-31
2023/10/31 07:29:28;;;;;;;1.57;0.67;;;;;;;;;;5054410;28;20206;-32
2023/10/31 07:31:58;;;;;;;0.93;0.67;;;;;;;;;;5059640;28;20213;-29
2023/10/31 07:34:30;;;;;;;2.77;0.50;;;;;;;;;;5056862;28;20218;-31
2023/10/31 07:37:01;;;;;;;0.50;0.50;;;;;;;;;;5059489;28;20606;-31
2023/10/31 07:39:30;;;;;;;0.50;0.50;;;;;;;;;;5049475;28;20233;-30
2023/10/31 07:42:04;;;;;;;0.60;0.60;;;;;;;;;;5065515;28;20676;-30
2023/10/31 07:44:32;;;;;;;0.73;0.33;;;;;;;;;;5066627;28;20906;-29
2023/10/31 07:47:02;;;;;;;0.70;0.70;;;;;;;;;;5070623;28;20986;-32
2023/10/31 07:49:31;;;;;;;0.60;0.60;;;;;;;;;;5072804;28;20205;-31
2023/10/31 07:52:00;;;;;;;1.40;0.70;;;;;;;;;;5063179;28;20304;-30
2023/10/31 07:54:28;;;;;;;0.87;0.73;;;;;;;;;;5071949;28;20226;-30
2023/10/31 07:56:59;;;;;;;0.40;0.40;;;;;;;;;;5068345;28;20236;-30
2023/10/31 07:59:35;;;;;;;1.00;0.50;;;;;;;;;;5061598;28;20217;-30
2023/10/31 08:02:04;;;;;;;0.60;0.60;;;;;;;;;;5058246;28;20262;-28
2023/10/31 08:04:33;;;;;;;0.50;0.50;;;;;;;;;;5064259;28;20239;-31
2023/10/31 08:07:01;;;;;;;1.97;0.70;;;;;;;;;;5064409;28;20202;-30
2023/10/31 08:09:29;;;;;;;1.43;0.67;;;;;;;;;;5056695;28;20300;-31
2023/10/31 08:12:00;;;;;;;0.43;0.43;;;;;;;;;;5071516;28;20604;-30
2023/10/31 08:14:28;;;;;;;0.67;0.50;;;;;;;;;;5071883;28;20745;-30
2023/10/31 08:16:56;;;;;;;0.50;0.50;;;;;;;;;;5065266;28;20209;-30
2023/10/31 08:19:46;;;;;;;2.50;0.80;;;;;;;;;;5069506;28;20212;-31
2023/10/31 08:22:16;;;;;;;2.70;1.63;;;;;;;;;;5066999;28;20210;-32
2023/10/31 08:24:47;;;;;;;3.83;2.17;;;;;;;;;;5058948;28;20278;-32
2023/10/31 08:27:18;;;;;;;3.03;0.63;;;;;;;;;;5054083;28;20213;-30
2023/10/31 08:29:46;;;;;;;2.97;0.80;;;;;;;;;;5070712;28;20297;-30
2023/10/31 08:32:17;;;;;;;2.10;0.57;;;;;;;;;;5064507;28;20696;-30
2023/10/31 08:34:44;;;;;;;0.83;0.47;;;;;;;;;;5055828;28;20239;-33
2023/10/31 08:37:15;;;;;;;0.60;0.47;;;;;;;;;;5057849;28;20664;-31
2023/10/31 08:39:49;;;;;;;0.70;0.60;;;;;;;;;;5060839;28;20248;-30
2023/10/31 08:42:21;;;;;;;2.00;0.70;;;;;;;;;;5060849;28;20197;-33
2023/10/31 08:44:53;;;;;;;0.83;0.43;;;;;;;;;;5063966;28;20232;-29
2023/10/31 08:47:24;;;;;;;1.77;1.03;;;;;;;;;;5073551;28;20202;-31
2023/10/31 08:49:59;;;;;;;0.57;0.50;;;;;;;;;;5054547;28;20202;-31
2023/10/31 08:52:27;;;;;;;1.10;0.60;;;;;;;;;;5060305;28;20210;-30
2023/10/31 08:54:55;;;;;;;0.77;0.53;;;;;;;;;;5061261;28;20557;-30
2023/10/31 08:57:30;;;;;;;0.50;0.50;;;;;;;;;;5061176;28;20524;-31
2023/10/31 09:23:07;;;;;;;0.90;0.77;;;;;;;;;;5134540;22;20268;-28
2023/10/31 09:25:35;;;;;;;1.03;0.53;;;;;;;;;;5071669;28;20302;-29
2023/10/31 09:28:03;;;;;;;0.50;0.50;;;;;;;;;;5081902;28;20205;-31
2023/10/31 09:30:31;;;;;;;0.70;0.63;;;;;;;;;;5074453;28;20209;-37
2023/10/31 09:33:01;;;;;;;1.97;0.63;;;;;;;;;;5076611;28;20197;-31
2023/10/31 09:35:34;;;;;;;1.77;0.80;;;;;;;;;;5068949;28;20274;-30
2023/10/31 09:38:03;;;;;;;3.00;0.60;;;;;;;;;;5083349;28;20209;-31
2023/10/31 09:40:34;;;;;;;1.93;0.90;;;;;;;;;;5077146;28;20201;-34
2023/10/31 09:43:03;;;;;;;0.87;0.77;;;;;;;;;;5082951;28;20295;-32
2023/10/31 09:45:34;;;;;;;1.30;0.53;;;;;;;;;;5077098;28;20203;-31
2023/10/31 09:48:07;;;;;;;2.73;0.80;;;;;;;;;;5073588;28;20292;-31
2023/10/31 09:50:35;;;;;;;2.63;0.90;;;;;;;;;;5070746;28;20215;-32
2023/10/31 09:53:06;;;;;;;1.77;0.63;;;;;;;;;;5080519;28;20208;-32
2023/10/31 09:55:38;;;;;;;1.40;0.63;;;;;;;;;;5075584;28;20206;-33
2023/10/31 09:58:08;;;;;;;2.37;0.67;;;;;;;;;;5080146;28;20638;-31
2023/10/31 10:00:40;;;;;;;0.60;0.60;;;;;;;;;;5079452;28;20213;-35
2023/10/31 10:03:09;;;;;;;2.93;1.00;;;;;;;;;;5077034;28;20706;-31
2023/10/31 10:05:37;;;;;;;2.80;0.80;;;;;;;;;;5076826;28;20297;-31
2023/10/31 10:08:17;;;;;;;1.27;0.70;;;;;;;;;;5072797;28;20210;-32
2023/10/31 10:10:46;;;;;;;2.63;0.73;;;;;;;;;;5078453;28;20216;-31
2023/10/31 10:13:21;;;;;;;1.40;0.90;;;;;;;;;;5077744;28;20260;-31
2023/10/31 10:16:06;;;;;;;1.17;0.70;;;;;;;;;;5073769;28;20208;-32
2023/10/31 10:18:40;;;;;;;4.97;0.80;;;;;;;;;;5075940;28;20208;-33
2023/10/31 10:21:08;;;;;;;0.93;0.70;;;;;;;;;;5085770;28;20217;-31
2023/10/31 10:23:36;;;;;;;0.77;0.50;;;;;;;;;;5077508;28;20232;-30
2023/10/31 10:26:06;;;;;;;2.27;0.70;;;;;;;;;;5077598;28;20278;-31
2023/10/31 10:28:35;;;;;;;2.33;0.70;;;;;;;;;;5073980;28;20211;-32
2023/10/31 10:31:02;;;;;;;1.63;0.70;;;;;;;;;;5074759;28;20674;-31
2023/10/31 10:33:31;;;;;;;1.40;0.60;;;;;;;;;;5081394;28;20698;-31
2023/10/31 10:36:01;;;;;;;2.43;0.73;;;;;;;;;;5076557;28;20203;-31
2023/10/31 10:38:35;;;;;;;0.60;0.50;;;;;;;;;;5084137;28;20204;-30
2023/10/31 10:41:06;;;;;;;1.43;0.87;;;;;;;;;;5078819;28;20224;-31
2023/10/31 10:43:39;;;;;;;3.80;0.90;;;;;;;;;;5089680;28;20228;-31
2023/10/31 10:46:07;;;;;;;0.90;0.70;;;;;;;;;;5082636;28;20258;-31
2023/10/31 10:48:38;;;;;;;2.00;0.60;;;;;;;;;;5082639;28;20212;-32
2023/10/31 10:51:16;;;;;;;1.67;0.73;;;;;;;;;;5086433;28;20240;-31
2023/10/31 10:53:52;;;;;;;2.97;0.67;;;;;;;;;;5089588;28;20694;-36
2023/10/31 10:56:24;;;;;;;3.10;0.80;;;;;;;;;;5077651;28;20228;-30
2023/10/31 10:58:59;;;;;;;1.67;0.60;;;;;;;;;;5080363;28;20263;-31
2023/10/31 11:01:28;;;;;;;0.93;0.63;;;;;;;;;;5078120;28;20292;-31
2023/10/31 11:03:58;;;;;;;1.53;0.70;;;;;;;;;;5074694;28;20265;-30
2023/10/31 11:06:27;;;;;;;1.10;1.00;;;;;;;;;;5077795;28;20652;-31
2023/10/31 11:08:55;;;;;;;1.87;0.60;;;;;;;;;;5089045;28;20567;-31
2023/10/31 11:11:24;;;;;;;0.60;0.60;;;;;;;;;;5082387;28;20293;-30
2023/10/31 11:13:56;;;;;;;3.03;0.73;;;;;;;;;;5089772;28;20273;-31
2023/10/31 11:16:28;;;;;;;0.60;0.60;;;;;;;;;;5086559;28;20735;-30
2023/10/31 11:18:59;;;;;;;2.47;0.90;;;;;;;;;;5087548;28;20613;-31
2023/10/31 11:21:32;;;;;;;2.83;0.80;;;;;;;;;;5082878;28;20235;-31
2023/10/31 11:24:01;;;;;;;3.23;1.07;;;;;;;;;;5081377;28;20222;-32
2023/10/31 11:26:29;;;;;;;1.93;0.90;;;;;;;;;;5076067;28;20207;-32
2023/10/31 11:29:06;;;;;;;1.20;0.80;;;;;;;;;;5079312;28;20296;-32
2023/10/31 11:31:39;;;;;;;1.23;0.67;;;;;;;;;;5093742;28;20204;-30
2023/10/31 11:34:14;;;;;;;1.53;0.80;;;;;;;;;;5073974;28;20224;-32
2023/10/31 11:36:42;;;;;;;1.10;0.63;;;;;;;;;;5082705;28;20204;-33
2023/10/31 11:39:14;;;;;;;1.50;0.80;;;;;;;;;;5081452;28;20219;-31
2023/10/31 11:41:43;;;;;;;2.00;0.87;;;;;;;;;;5085953;28;20202;-34
2023/10/31 11:44:20;;;;;;;2.73;1.20;;;;;;;;;;5088730;28;20226;-31
2023/10/31 11:46:51;;;;;;;1.17;0.80;;;;;;;;;;5083271;28;20205;-30
2023/10/31 11:49:19;;;;;;;1.20;0.80;;;;;;;;;;5083360;28;20655;-32
2023/10/31 11:51:52;;;;;;;1.73;0.80;;;;;;;;;;5083762;28;20641;-33
2023/10/31 11:54:28;;;;;;;0.97;0.67;;;;;;;;;;5075665;28;20232;-30
2023/10/31 11:56:59;;;;;;;2.53;0.90;;;;;;;;;;5084548;28;20426;-30
2023/10/31 11:59:37;;;;;;;1.50;0.90;;;;;;;;;;5089370;28;20549;-32
2023/10/31 12:02:20;;;;;;;0.87;0.60;;;;;;;;;;5088874;28;20204;-31
2023/10/31 12:04:48;;;;;;;3.83;0.73;;;;;;;;;;5090091;28;20251;-33
2023/10/31 12:07:22;;;;;;;3.77;0.90;;;;;;;;;;5085663;28;20212;-31
2023/10/31 12:09:50;;;;;;;3.70;0.63;;;;;;;;;;5085577;28;20208;-32
2023/10/31 12:12:18;;;;;;;0.97;0.60;;;;;;;;;;5086746;28;20212;-31
2023/10/31 12:14:50;;;;;;;2.60;1.10;;;;;;;;;;5075753;28;20283;-31
2023/10/31 12:17:20;;;;;;;2.13;1.30;;;;;;;;;;5088135;28;20237;-32
2023/10/31 12:19:50;;;;;;;3.20;1.13;;;;;;;;;;5074153;28;20215;-35
2023/10/31 12:22:30;;;;;;;2.10;1.10;;;;;;;;;;5077129;28;20296;-33
2023/10/31 12:25:05;;;;;;;5.47;1.17;;;;;;;;;;5071476;28;20225;-31
2023/10/31 12:27:49;;;;;;;2.27;1.30;;;;;;;;;;5073250;28;20248;-30
2023/10/31 12:30:18;;;;;;;1.80;1.10;;;;;;;;;;5077406;28;20213;-33
2023/10/31 12:32:48;;;;;;;1.30;0.70;;;;;;;;;;5088582;28;20211;-33
2023/10/31 12:35:27;;;;;;;2.67;0.60;;;;;;;;;;5080661;28;20308;-29
2023/10/31 12:38:32;;;;;;;0.90;0.70;;;;;;;;;;5082806;28;20232;-30
2023/10/31 12:41:01;;;;;;;1.83;0.70;;;;;;;;;;5050607;28;20208;-32
2023/10/31 12:43:30;;;;;;;2.63;0.73;;;;;;;;;;5090213;28;20319;-33
2023/10/31 12:46:18;;;;;;;2.47;0.50;;;;;;;;;;5092203;28;20229;-33
2023/10/31 12:48:51;;;;;;;0.73;0.73;;;;;;;;;;5072289;28;20361;-31
2023/10/31 12:51:19;;;;;;;0.63;0.53;;;;;;;;;;5092309;28;20290;-32
2023/10/31 12:53:52;;;;;;;0.80;0.67;;;;;;;;;;5071659;28;20316;-31
2023/10/31 12:56:42;;;;;;;0.77;0.60;;;;;;;;;;5080534;28;20207;-32
2023/10/31 12:59:12;;;;;;;2.27;0.60;;;;;;;;;;5092433;28;20632;-31
2023/10/31 13:01:44;;;;;;;1.13;0.53;;;;;;;;;;5091540;28;20202;-31
2023/10/31 13:04:26;;;;;;;0.50;0.50;;;;;;;;;;5078725;28;20224;-33
2023/10/31 13:07:03;;;;;;;0.73;0.50;;;;;;;;;;5079735;28;20213;-31
2023/10/31 13:09:35;;;;;;;2.10;0.53;;;;;;;;;;5075069;28;20203;-34
2023/10/31 13:12:06;;;;;;;1.63;0.47;;;;;;;;;;5072633;28;20295;-32
2023/10/31 13:14:38;;;;;;;0.40;0.40;;;;;;;;;;5087779;28;20247;-29
2023/10/31 13:17:11;;;;;;;1.23;0.50;;;;;;;;;;5074656;28;20201;-32
2023/10/31 13:19:49;;;;;;;1.40;0.40;;;;;;;;;;5087338;28;20212;-32
2023/10/31 13:22:17;;;;;;;3.33;0.50;;;;;;;;;;5071099;28;20205;-31
2023/10/31 13:24:48;;;;;;;1.07;0.87;;;;;;;;;;5076577;28;20233;-33
2023/10/31 13:27:20;;;;;;;0.90;0.73;;;;;;;;;;5083040;28;20266;-32
2023/10/31 13:29:51;;;;;;;0.40;0.40;;;;;;;;;;5082890;28;20207;-33
2023/10/31 13:32:32;;;;;;;0.87;0.50;;;;;;;;;;5074383;28;20213;-30
2023/10/31 13:35:08;;;;;;;0.97;0.63;;;;;;;;;;5084805;28;20218;-30
2023/10/31 13:37:36;;;;;;;1.30;0.90;;;;;;;;;;5075759;28;20231;-32
2023/10/31 13:40:04;;;;;;;2.17;0.90;;;;;;;;;;5077343;28;20289;-32
2023/10/31 13:42:35;;;;;;;1.17;0.60;;;;;;;;;;5073859;28;20210;-30
2023/10/31 13:45:03;;;;;;;1.27;0.80;;;;;;;;;;5079090;28;20314;-31
2023/10/31 13:47:34;;;;;;;0.70;0.70;;;;;;;;;;5083227;28;20224;-32
2023/10/31 13:50:04;;;;;;;0.73;0.73;;;;;;;;;;5081472;28;20209;-30
2023/10/31 13:52:32;;;;;;;1.07;1.07;;;;;;;;;;5076307;28;20252;-31
2023/10/31 13:55:01;;;;;;;1.60;1.07;;;;;;;;;;5069693;28;20221;-32
2023/10/31 13:57:36;;;;;;;0.97;0.67;;;;;;;;;;5085596;28;20202;-32
2023/10/31 14:00:10;;;;;;;2.00;0.50;;;;;;;;;;5091377;28;20401;-32
2023/10/31 14:02:43;;;;;;;0.53;0.40;;;;;;;;;;5084511;28;20222;-32
2023/10/31 14:05:16;;;;;;;0.93;0.80;;;;;;;;;;5079749;28;20325;-32
2023/10/31 14:07:48;;;;;;;1.83;1.70;;;;;;;;;;5086841;28;20208;-30
2023/10/31 14:10:19;;;;;;;0.83;0.53;;;;;;;;;;5082515;28;20210;-32
2023/10/31 14:12:48;;;;;;;1.10;0.70;;;;;;;;;;5074243;28;20208;-33
2023/10/31 14:15:25;;;;;;;1.87;0.93;;;;;;;;;;5087886;28;20229;-31
2023/10/31 14:17:56;;;;;;;0.73;0.73;;;;;;;;;;5081221;28;20204;-32
2023/10/31 14:20:26;;;;;;;2.03;1.00;;;;;;;;;;5081831;28;20202;-33
2023/10/31 14:22:57;;;;;;;0.93;0.70;;;;;;;;;;5080844;28;20201;-30
2023/10/31 14:25:41;;;;;;;1.47;0.60;;;;;;;;;;5079867;28;20223;-30
2023/10/31 14:28:12;;;;;;;1.73;0.93;;;;;;;;;;5079659;28;20678;-32
2023/10/31 14:30:49;;;;;;;1.03;0.73;;;;;;;;;;5075585;28;20239;-32
2023/10/31 14:33:46;;;;;;;0.80;0.60;;;;;;;;;;5071126;28;20947;-29
2023/10/31 14:36:16;;;;;;;3.03;0.80;;;;;;;;;;5075258;28;20196;-32
2023/10/31 14:38:48;;;;;;;0.60;0.60;;;;;;;;;;5075551;28;20205;-31
2023/10/31 14:41:16;;;;;;;0.83;0.70;;;;;;;;;;5079512;28;20674;-32
2023/10/31 14:43:53;;;;;;;1.27;0.70;;;;;;;;;;5082872;28;20228;-31
2023/10/31 14:46:21;;;;;;;0.93;0.70;;;;;;;;;;5083706;28;20213;-32
2023/10/31 14:48:49;;;;;;;2.30;1.00;;;;;;;;;;5080231;28;20213;-32
2023/10/31 14:51:36;;;;;;;0.43;0.43;;;;;;;;;;5082192;28;20200;-31
2023/10/31 14:54:05;;;;;;;0.60;0.60;;;;;;;;;;5079458;28;20247;-32
2023/10/31 14:56:34;;;;;;;2.07;0.60;;;;;;;;;;5077846;28;20652;-30
2023/10/31 14:59:03;;;;;;;4.10;0.60;;;;;;;;;;5091607;28;20258;-33
2023/10/31 15:01:34;;;;;;;0.70;0.70;;;;;;;;;;5084890;28;20205;-32
2023/10/31 15:04:02;;;;;;;0.40;0.40;;;;;;;;;;5090424;28;20305;-30
2023/10/31 15:06:30;;;;;;;0.60;0.60;;;;;;;;;;5088213;28;20225;-32
2023/10/31 15:09:06;;;;;;;0.90;0.63;;;;;;;;;;5080118;28;20228;-30
2023/10/31 15:11:37;;;;;;;1.50;0.63;;;;;;;;;;5079223;28;20196;-31
2023/10/31 15:14:10;;;;;;;0.60;0.53;;;;;;;;;;5085260;28;20222;-32
2023/10/31 15:16:44;;;;;;;1.33;0.63;;;;;;;;;;5080580;28;20201;-34
2023/10/31 15:19:13;;;;;;;3.80;0.70;;;;;;;;;;5080648;28;20205;-32
2023/10/31 15:21:50;;;;;;;0.60;0.60;;;;;;;;;;5078224;28;20247;-31
2023/10/31 15:24:22;;;;;;;1.80;0.67;;;;;;;;;;5069772;28;20236;-30
2023/10/31 15:26:50;;;;;;;1.20;0.60;;;;;;;;;;5085537;28;20277;-30